createdAt,value
2022-11-30T00:01:44.525Z,34.70
2022-11-30T00:04:17.427Z,44.13
2022-11-30T00:06:50.482Z,41.03
2022-11-30T00:09:25.548Z,39.88
2022-11-30T00:11:58.547Z,38.17
2022-11-30T00:14:31.919Z,49.78
2022-11-30T00:17:04.992Z,45.65
2022-11-30T00:19:38.019Z,43.53
2022-11-30T00:22:10.894Z,45.47
2022-11-30T00:24:44.052Z,50.00
2022-11-30T00:27:16.998Z,43.90
2022-11-30T00:29:49.697Z,46.15
2022-11-30T00:32:22.552Z,51.08
2022-11-30T00:34:55.355Z,35.83
2022-11-30T00:37:28.321Z,44.88
2022-11-30T00:40:01.552Z,44.72
2022-11-30T00:42:34.517Z,39.17
2022-11-30T00:45:08.496Z,38.88
2022-11-30T00:47:41.795Z,42.10
2022-11-30T00:50:15.042Z,33.58
2022-11-30T00:52:47.939Z,43.90
2022-11-30T00:55:20.835Z,36.25
2022-11-30T00:57:54.434Z,36.15
2022-11-30T01:00:28.345Z,44.38
2022-11-30T01:03:01.522Z,42.83
2022-11-30T01:05:35.364Z,43.33
2022-11-30T01:08:11.364Z,43.70
2022-11-30T01:10:45.141Z,47.10
2022-11-30T01:13:18.078Z,38.33
2022-11-30T01:15:51.253Z,35.53
2022-11-30T01:18:24.688Z,34.22
2022-11-30T01:20:57.692Z,36.17
2022-11-30T01:23:30.543Z,35.30
2022-11-30T01:26:04.032Z,35.60
2022-11-30T01:28:37.332Z,32.20
2022-11-30T01:31:14.344Z,45.10
2022-11-30T01:33:55.474Z,37.50
2022-11-30T01:36:28.162Z,28.88
2022-11-30T01:39:00.783Z,33.05
2022-11-30T01:41:33.595Z,32.63
2022-11-30T01:44:06.194Z,31.55
2022-11-30T01:46:55.144Z,28.90
2022-11-30T01:49:38.228Z,34.15
2022-11-30T01:52:17.382Z,39.78
2022-11-30T01:55:14.580Z,30.73
2022-11-30T01:58:24.104Z,35.00
2022-11-30T02:00:57.123Z,31.52
2022-11-30T02:04:24.140Z,31.50
2022-11-30T02:07:03.397Z,27.83
2022-11-30T02:09:44.922Z,25.88
2022-11-30T02:13:10.634Z,32.10
2022-11-30T02:16:10.733Z,35.25
2022-11-30T02:19:11.701Z,26.42
2022-11-30T02:22:22.397Z,27.80
2022-11-30T02:25:14.074Z,27.35
2022-11-30T02:28:18.912Z,27.30
2022-11-30T02:30:54.626Z,24.60
2022-11-30T02:33:33.030Z,24.02
2022-11-30T02:36:09.899Z,28.50
2022-11-30T02:38:43.165Z,24.05
2022-11-30T02:41:16.011Z,21.00
2022-11-30T02:43:49.348Z,23.92
2022-11-30T02:46:54.494Z,26.15
2022-11-30T02:49:42.388Z,23.15
2022-11-30T02:52:19.435Z,19.45
2022-11-30T02:54:58.593Z,20.88
2022-11-30T02:57:31.279Z,22.00
2022-11-30T03:00:10.189Z,16.75
2022-11-30T03:02:43.180Z,21.23
2022-11-30T03:05:16.119Z,17.20
2022-11-30T03:07:48.918Z,19.08
2022-11-30T03:10:21.982Z,21.33
2022-11-30T03:12:59.570Z,21.73
2022-11-30T03:15:32.383Z,20.92
2022-11-30T03:18:06.546Z,17.95
2022-11-30T03:20:43.257Z,23.42
2022-11-30T03:23:16.154Z,19.60
2022-11-30T03:25:48.968Z,20.73
2022-11-30T03:28:21.974Z,17.63
2022-11-30T03:30:55.065Z,21.70
2022-11-30T03:33:27.798Z,18.83
2022-11-30T03:36:07.700Z,18.00
2022-11-30T03:38:40.753Z,19.73
2022-11-30T03:41:16.971Z,20.60
2022-11-30T03:46:23.035Z,14.55
2022-11-30T03:48:55.763Z,18.00
2022-11-30T03:51:28.816Z,20.48
2022-11-30T03:54:02.168Z,18.90
2022-11-30T03:56:34.883Z,19.42
2022-11-30T03:59:07.767Z,23.35
2022-11-30T04:01:41.235Z,18.60
2022-11-30T04:04:14.487Z,14.20
2022-11-30T04:06:47.428Z,17.15
2022-11-30T04:09:20.481Z,18.98
2022-11-30T04:11:53.456Z,16.45
2022-11-30T04:14:26.352Z,17.73
2022-11-30T04:16:59.454Z,17.50
2022-11-30T04:19:32.210Z,19.98
2022-11-30T04:22:07.983Z,20.10
2022-11-30T04:24:41.035Z,18.30
2022-11-30T04:27:16.579Z,22.17
2022-11-30T04:29:49.954Z,22.73
2022-11-30T04:32:23.128Z,18.63
2022-11-30T04:34:55.962Z,18.27
2022-11-30T04:37:28.807Z,20.25
2022-11-30T04:40:02.988Z,20.48
2022-11-30T04:42:35.866Z,18.25
2022-11-30T04:45:10.257Z,20.88
2022-11-30T04:47:43.332Z,20.55
2022-11-30T04:50:17.431Z,20.85
2022-11-30T04:52:50.545Z,19.13
2022-11-30T04:55:24.619Z,19.33
2022-11-30T04:57:57.505Z,19.58
2022-11-30T05:00:31.081Z,23.25
2022-11-30T05:03:04.296Z,25.25
2022-11-30T05:05:37.394Z,20.65
2022-11-30T05:08:10.364Z,20.70
2022-11-30T05:10:43.098Z,19.15
2022-11-30T05:13:16.011Z,21.35
2022-11-30T05:15:48.983Z,20.00
2022-11-30T05:18:25.152Z,17.95
2022-11-30T05:20:58.246Z,21.70
2022-11-30T05:23:31.024Z,20.20
2022-11-30T05:26:04.639Z,18.00
2022-11-30T05:28:37.509Z,17.50
2022-11-30T05:31:10.401Z,17.80
2022-11-30T05:33:44.451Z,17.45
2022-11-30T05:36:17.409Z,20.30
2022-11-30T05:38:50.569Z,21.02
2022-11-30T05:41:23.645Z,18.95
2022-11-30T05:43:57.125Z,14.85
2022-11-30T05:46:30.318Z,16.92
2022-11-30T05:49:03.332Z,20.13
2022-11-30T05:51:36.634Z,24.08
2022-11-30T05:54:10.050Z,17.38
2022-11-30T05:56:43.239Z,17.70
2022-11-30T05:59:16.018Z,18.13
2022-11-30T06:01:49.519Z,19.65
2022-11-30T06:04:22.706Z,17.73
2022-11-30T06:06:55.988Z,20.48
2022-11-30T06:09:29.575Z,16.23
2022-11-30T06:12:02.373Z,18.88
2022-11-30T06:14:35.115Z,22.42
2022-11-30T06:17:07.775Z,18.63
2022-11-30T06:19:40.509Z,17.23
2022-11-30T06:22:13.446Z,16.10
2022-11-30T06:24:46.453Z,18.63
2022-11-30T06:27:19.373Z,16.10
2022-11-30T06:29:52.312Z,18.55
2022-11-30T06:32:27.576Z,18.73
2022-11-30T06:35:00.424Z,25.67
2022-11-30T06:37:35.983Z,17.08
2022-11-30T06:40:11.789Z,19.25
2022-11-30T06:42:44.692Z,20.20
2022-11-30T06:45:17.691Z,18.42
2022-11-30T06:47:50.666Z,18.17
2022-11-30T06:50:24.302Z,19.52
2022-11-30T06:52:59.192Z,17.90
2022-11-30T06:55:35.481Z,17.33
2022-11-30T06:58:10.430Z,16.70
2022-11-30T07:00:46.347Z,18.98
2022-11-30T07:03:19.019Z,17.45
2022-11-30T07:05:52.022Z,17.70
2022-11-30T07:08:24.799Z,16.60
2022-11-30T07:11:00.551Z,18.40
2022-11-30T07:13:33.951Z,20.92
2022-11-30T07:16:11.277Z,19.40
2022-11-30T07:18:44.063Z,18.55
2022-11-30T07:21:17.301Z,17.23
2022-11-30T07:24:08.815Z,17.45
2022-11-30T07:26:41.994Z,17.15
2022-11-30T07:29:15.177Z,17.45
2022-11-30T07:31:52.450Z,17.90
2022-11-30T07:34:25.563Z,17.02
2022-11-30T07:36:58.586Z,19.75
2022-11-30T07:39:31.558Z,21.85
2022-11-30T07:42:04.323Z,17.23
2022-11-30T07:44:36.923Z,20.20
2022-11-30T07:47:09.865Z,16.95
2022-11-30T07:49:42.678Z,19.45
2022-11-30T07:52:15.547Z,17.58
2022-11-30T07:54:48.597Z,19.67
2022-11-30T07:57:21.279Z,19.50
2022-11-30T07:59:53.926Z,19.33
2022-11-30T08:02:26.656Z,20.02
2022-11-30T08:04:59.634Z,21.10
2022-11-30T08:07:32.390Z,19.20
2022-11-30T08:10:06.944Z,25.23
2022-11-30T08:12:39.654Z,19.42
2022-11-30T08:15:19.922Z,20.58
2022-11-30T08:17:55.316Z,18.92
2022-11-30T08:20:27.953Z,22.30
2022-11-30T08:23:00.703Z,19.40
2022-11-30T08:25:35.747Z,21.25
2022-11-30T08:28:08.550Z,20.33
2022-11-30T08:30:41.236Z,21.20
2022-11-30T08:33:14.511Z,21.60
2022-11-30T08:35:47.161Z,21.52
2022-11-30T08:38:19.832Z,22.45
2022-11-30T08:40:58.629Z,24.10
2022-11-30T08:43:32.400Z,22.77
2022-11-30T08:46:34.616Z,22.88
2022-11-30T08:54:49.848Z,17.65
2022-11-30T08:57:23.184Z,24.98
2022-11-30T08:59:56.003Z,21.85
2022-11-30T09:02:28.767Z,22.02
2022-11-30T09:05:01.669Z,21.08
2022-11-30T09:07:34.499Z,21.13
2022-11-30T09:10:08.666Z,21.80
2022-11-30T09:12:42.131Z,22.05
2022-11-30T09:15:15.140Z,18.25
2022-11-30T09:17:47.924Z,22.08
2022-11-30T09:20:20.872Z,22.00
2022-11-30T09:22:53.918Z,20.98
2022-11-30T09:25:26.728Z,21.38
2022-11-30T09:27:59.331Z,20.92
2022-11-30T09:30:32.325Z,17.60
2022-11-30T09:33:05.246Z,21.80
2022-11-30T09:35:38.107Z,22.38
2022-11-30T09:38:11.176Z,20.92
2022-11-30T09:40:44.309Z,23.40
2022-11-30T09:43:51.563Z,23.85
2022-11-30T09:46:41.545Z,23.15
2022-11-30T09:49:24.954Z,19.80
2022-11-30T09:52:04.727Z,21.52
2022-11-30T09:54:42.278Z,20.60
2022-11-30T09:57:29.894Z,23.45
2022-11-30T10:00:23.933Z,18.63
2022-11-30T10:03:02.515Z,20.05
2022-11-30T10:05:45.731Z,20.55
2022-11-30T10:08:50.715Z,22.15
2022-11-30T10:11:43.879Z,23.42
2022-11-30T10:14:31.670Z,19.10
2022-11-30T10:17:37.356Z,19.20
2022-11-30T10:20:39.909Z,26.73
2022-11-30T10:24:10.295Z,20.70
2022-11-30T10:26:57.231Z,22.02
2022-11-30T10:29:43.637Z,19.48
2022-11-30T10:32:35.813Z,25.88
2022-11-30T10:35:52.722Z,20.88
2022-11-30T10:38:34.427Z,21.08
2022-11-30T10:41:31.528Z,29.23
2022-11-30T10:44:18.338Z,19.55
2022-11-30T10:47:12.072Z,22.10
2022-11-30T10:49:54.104Z,28.83
2022-11-30T10:52:39.265Z,18.98
2022-11-30T10:55:27.113Z,20.27
2022-11-30T10:58:15.034Z,21.48
2022-11-30T11:01:09.193Z,25.33
2022-11-30T11:03:42.284Z,18.00
2022-11-30T11:06:25.688Z,20.17
2022-11-30T11:08:58.843Z,16.40
2022-11-30T11:11:39.695Z,16.05
2022-11-30T11:14:23.663Z,15.80
2022-11-30T11:17:07.376Z,17.92
2022-11-30T11:19:43.796Z,19.33
2022-11-30T11:22:27.296Z,17.60
2022-11-30T11:25:24.453Z,13.85
2022-11-30T11:28:12.821Z,13.02
2022-11-30T11:30:45.533Z,19.73
2022-11-30T11:33:30.518Z,19.00
2022-11-30T11:36:09.237Z,20.45
2022-11-30T11:38:48.817Z,26.02
2022-11-30T11:41:36.446Z,19.95
2022-11-30T11:44:09.714Z,18.88
2022-11-30T11:47:09.040Z,20.52
2022-11-30T11:49:42.341Z,20.27
2022-11-30T11:52:18.888Z,18.65
2022-11-30T11:55:03.569Z,19.70
2022-11-30T11:57:54.675Z,17.15
2022-11-30T12:00:35.696Z,15.93
2022-11-30T12:03:35.606Z,16.70
2022-11-30T12:06:27.277Z,17.98
2022-11-30T12:09:36.939Z,18.75
2022-11-30T12:12:14.462Z,18.35
2022-11-30T12:14:59.179Z,16.83
2022-11-30T12:17:49.067Z,17.20
2022-11-30T12:21:29.806Z,20.27
2022-11-30T12:24:35.889Z,18.73
2022-11-30T12:27:54.082Z,19.92
2022-11-30T12:31:12.965Z,25.73
2022-11-30T12:34:24.969Z,22.10
2022-11-30T12:37:44.390Z,19.05
2022-11-30T12:41:05.231Z,18.17
2022-11-30T12:44:11.408Z,17.65
2022-11-30T12:47:15.997Z,18.98
2022-11-30T12:50:04.871Z,20.60
2022-11-30T12:53:12.975Z,19.60
2022-11-30T12:56:14.602Z,17.38
2022-11-30T12:59:32.334Z,15.45
2022-11-30T13:02:37.419Z,18.38
2022-11-30T13:05:24.512Z,18.52
2022-11-30T13:08:42.998Z,17.17
2022-11-30T13:11:41.319Z,18.58
2022-11-30T13:14:31.881Z,21.40
2022-11-30T13:17:15.707Z,17.70
2022-11-30T13:20:10.356Z,20.45
2022-11-30T13:23:05.716Z,18.85
2022-11-30T13:26:07.771Z,18.15
2022-11-30T13:28:44.558Z,18.13
2022-11-30T13:31:34.281Z,18.98
2022-11-30T13:34:28.526Z,18.20
2022-11-30T13:37:09.973Z,16.85
2022-11-30T13:40:04.704Z,17.48
2022-11-30T13:42:50.254Z,18.80
2022-11-30T13:45:37.059Z,17.48
2022-11-30T13:48:42.091Z,19.85
2022-11-30T13:51:39.895Z,20.45
2022-11-30T13:54:47.663Z,18.77
2022-11-30T13:57:29.483Z,17.90
2022-11-30T14:00:30.080Z,18.13
2022-11-30T14:03:20.856Z,20.88
2022-11-30T14:06:04.640Z,20.80
2022-11-30T14:08:38.906Z,18.92
2022-11-30T14:11:17.700Z,18.58
2022-11-30T14:13:53.954Z,18.80
2022-11-30T14:16:30.354Z,19.13
2022-11-30T14:19:06.513Z,15.75
2022-11-30T14:24:25.109Z,18.92
2022-11-30T14:27:00.098Z,19.83
2022-11-30T14:29:39.669Z,22.10
2022-11-30T14:32:50.613Z,19.05
2022-11-30T14:35:23.933Z,21.73
2022-11-30T14:38:00.107Z,19.23
2022-11-30T14:43:17.724Z,18.55
2022-11-30T14:46:12.955Z,17.25
2022-11-30T14:49:19.514Z,18.05
2022-11-30T14:52:05.608Z,17.48
2022-11-30T14:55:09.385Z,18.75
2022-11-30T14:58:07.248Z,18.77
2022-11-30T15:00:45.138Z,18.75
2022-11-30T15:03:26.295Z,17.33
2022-11-30T15:06:07.144Z,17.80
2022-11-30T15:08:50.795Z,16.77
2022-11-30T15:11:39.058Z,20.45
2022-11-30T15:14:13.050Z,17.80
2022-11-30T15:17:01.144Z,17.60
2022-11-30T15:19:34.941Z,15.25
2022-11-30T15:22:26.390Z,17.20
2022-11-30T15:24:59.845Z,17.25
2022-11-30T15:27:40.259Z,18.25
2022-11-30T15:30:20.270Z,16.35
2022-11-30T15:32:55.858Z,18.75
2022-11-30T15:35:57.035Z,20.13
2022-11-30T15:38:27.595Z,16.63
2022-11-30T15:41:22.929Z,18.70
2022-11-30T15:44:00.579Z,18.38
2022-11-30T15:46:46.648Z,17.42
2022-11-30T15:49:36.192Z,17.13
2022-11-30T15:54:55.418Z,17.55
2022-11-30T15:58:00.115Z,18.58
2022-11-30T16:00:35.136Z,18.77
2022-11-30T16:03:15.817Z,16.58
2022-11-30T16:06:11.754Z,19.85
2022-11-30T16:08:48.283Z,15.45
2022-11-30T16:11:23.689Z,19.90
2022-11-30T16:13:59.453Z,18.40
2022-11-30T16:16:40.066Z,20.00
2022-11-30T16:19:12.869Z,21.10
2022-11-30T16:21:45.946Z,19.98
2022-11-30T16:24:25.596Z,19.50
2022-11-30T16:26:59.884Z,21.05
2022-11-30T16:29:32.998Z,16.58
2022-11-30T16:32:07.087Z,15.18
2022-11-30T16:34:44.011Z,14.80
2022-11-30T16:37:17.461Z,16.75
2022-11-30T16:39:52.680Z,19.25
2022-11-30T16:42:28.724Z,13.13
2022-11-30T16:45:01.557Z,16.13
2022-11-30T16:47:37.077Z,13.95
2022-11-30T16:50:12.471Z,20.33
2022-11-30T16:52:45.542Z,18.98
2022-11-30T16:55:23.021Z,17.08
2022-11-30T16:57:55.851Z,18.27
2022-11-30T17:00:29.025Z,19.65
2022-11-30T17:03:18.092Z,18.83
2022-11-30T17:05:51.226Z,16.45
2022-11-30T17:08:24.204Z,17.67
2022-11-30T17:10:57.226Z,16.25
2022-11-30T17:13:32.468Z,16.60
2022-11-30T17:16:08.978Z,17.10
2022-11-30T17:18:42.127Z,17.33
2022-11-30T17:21:18.335Z,17.15
2022-11-30T17:23:51.325Z,15.18
2022-11-30T17:26:24.342Z,14.90
2022-11-30T17:28:57.266Z,18.75
2022-11-30T17:31:32.674Z,19.08
2022-11-30T17:34:06.760Z,17.95
2022-11-30T17:36:39.629Z,15.15
2022-11-30T17:39:12.494Z,17.55
2022-11-30T17:41:46.846Z,21.20
2022-11-30T17:44:19.590Z,17.55
2022-11-30T17:46:55.199Z,15.70
2022-11-30T17:49:32.826Z,15.98
2022-11-30T17:52:05.889Z,16.35
2022-11-30T17:54:38.795Z,17.95
2022-11-30T17:57:11.599Z,15.68
2022-11-30T17:59:44.580Z,18.90
2022-11-30T18:02:17.321Z,19.23
2022-11-30T18:04:50.155Z,14.18
2022-11-30T18:07:23.432Z,18.73
2022-11-30T18:09:56.508Z,14.95
2022-11-30T18:12:29.350Z,18.38
2022-11-30T18:15:02.195Z,21.55
2022-11-30T18:17:35.535Z,15.70
2022-11-30T18:20:08.924Z,18.60
2022-11-30T18:22:41.492Z,17.02
2022-11-30T18:25:15.565Z,14.38
2022-11-30T18:27:51.824Z,14.05
2022-11-30T18:32:57.107Z,16.27
2022-11-30T18:35:29.872Z,14.48
2022-11-30T18:38:02.698Z,15.50
2022-11-30T18:40:35.524Z,14.38
2022-11-30T18:43:08.510Z,16.90
2022-11-30T18:45:41.248Z,18.98
2022-11-30T18:48:14.031Z,18.50
2022-11-30T18:50:46.643Z,20.75
2022-11-30T18:53:19.281Z,21.73
2022-11-30T18:55:52.078Z,23.58
2022-11-30T18:58:26.866Z,25.67
2022-11-30T19:01:12.271Z,21.38
2022-11-30T19:03:54.108Z,20.73
2022-11-30T19:06:30.003Z,16.02
2022-11-30T19:09:08.754Z,20.33
2022-11-30T19:11:43.259Z,21.30
2022-11-30T19:14:17.791Z,18.92
2022-11-30T19:16:50.618Z,19.90
2022-11-30T19:19:23.480Z,20.73
2022-11-30T19:21:58.325Z,18.17
2022-11-30T19:24:34.115Z,21.52
2022-11-30T19:27:06.998Z,21.17
2022-11-30T19:29:39.910Z,19.80
2022-11-30T19:32:12.673Z,21.70
2022-11-30T19:34:45.825Z,19.65
2022-11-30T19:37:18.932Z,18.55
2022-11-30T19:39:51.492Z,22.58
2022-11-30T19:42:24.174Z,19.92
2022-11-30T19:44:56.898Z,20.27
2022-11-30T19:47:30.029Z,20.50
2022-11-30T19:50:03.079Z,23.88
2022-11-30T19:52:35.647Z,20.30
2022-11-30T19:55:08.850Z,23.23
2022-11-30T19:57:41.522Z,21.27
2022-11-30T20:00:14.781Z,19.35
2022-11-30T20:02:49.563Z,19.77
2022-11-30T20:05:22.185Z,22.17
2022-11-30T20:07:54.950Z,21.77
2022-11-30T20:10:31.926Z,22.27
2022-11-30T20:13:04.764Z,18.77
2022-11-30T20:15:39.694Z,21.02
2022-11-30T20:18:12.417Z,25.33
2022-11-30T20:20:45.025Z,22.27
2022-11-30T20:23:17.739Z,19.95
2022-11-30T20:25:54.466Z,20.45
2022-11-30T20:28:27.606Z,19.65
2022-11-30T20:31:03.092Z,19.65
2022-11-30T20:33:38.040Z,26.13
2022-11-30T20:36:12.891Z,22.33
2022-11-30T20:38:45.699Z,21.40
2022-11-30T20:41:24.893Z,19.38
2022-11-30T20:43:57.981Z,19.48
2022-11-30T20:46:35.181Z,21.90
2022-11-30T20:49:18.643Z,20.60
2022-11-30T20:51:51.315Z,21.67
2022-11-30T20:54:23.994Z,19.52
2022-11-30T20:56:58.790Z,21.45
2022-11-30T20:59:31.387Z,18.00
2022-11-30T21:02:04.356Z,19.40
2022-11-30T21:04:37.187Z,21.13
2022-11-30T21:07:10.300Z,21.30
2022-11-30T21:09:43.345Z,20.30
2022-11-30T21:12:16.138Z,22.08
2022-11-30T21:14:49.741Z,22.50
2022-11-30T21:17:22.661Z,23.58
2022-11-30T21:19:55.386Z,20.17
2022-11-30T21:22:28.612Z,22.73
2022-11-30T21:25:01.351Z,20.02
2022-11-30T21:27:35.285Z,21.08
2022-11-30T21:30:09.365Z,23.13
2022-11-30T21:32:42.195Z,19.30
2022-11-30T21:35:15.107Z,24.25
2022-11-30T21:37:47.681Z,20.98
2022-11-30T21:40:21.466Z,23.85
2022-11-30T21:42:54.341Z,22.08
2022-11-30T21:45:26.976Z,18.30
2022-11-30T21:47:59.688Z,23.83
2022-11-30T21:50:34.682Z,22.92
2022-11-30T21:53:09.577Z,23.98
2022-11-30T21:55:42.211Z,24.05
2022-11-30T21:58:14.908Z,19.10
2022-11-30T22:00:58.151Z,23.83
2022-11-30T22:03:42.951Z,18.70
2022-11-30T22:06:18.836Z,23.98
2022-11-30T22:08:51.869Z,23.70
2022-11-30T22:11:24.481Z,25.02
2022-11-30T22:13:57.187Z,24.15
2022-11-30T22:16:35.644Z,24.60
2022-11-30T22:19:08.865Z,29.65
2022-11-30T22:21:46.798Z,22.00
2022-11-30T22:24:24.815Z,22.17
2022-11-30T22:26:57.452Z,20.92
2022-11-30T22:29:30.101Z,28.20
2022-11-30T22:32:02.658Z,22.65
2022-11-30T22:34:35.457Z,23.85
2022-11-30T22:37:08.104Z,26.92
2022-11-30T22:39:40.770Z,24.83
2022-11-30T22:42:13.381Z,24.17
2022-11-30T22:44:46.022Z,28.00
2022-11-30T22:47:18.581Z,22.83
2022-11-30T22:49:51.676Z,23.30
2022-11-30T22:52:42.228Z,21.40
2022-11-30T22:55:17.398Z,24.17
2022-11-30T22:57:50.215Z,20.58
2022-11-30T23:00:24.269Z,21.73
2022-11-30T23:02:56.958Z,26.95
2022-11-30T23:05:29.762Z,25.85
2022-11-30T23:08:05.664Z,24.60
2022-11-30T23:10:38.312Z,23.42
2022-11-30T23:13:10.892Z,22.48
2022-11-30T23:15:43.482Z,25.65
2022-11-30T23:18:16.350Z,22.02
2022-11-30T23:20:50.267Z,26.52
2022-11-30T23:23:26.104Z,30.33
2022-11-30T23:26:12.626Z,23.83
2022-11-30T23:28:48.166Z,24.45
2022-11-30T23:31:33.853Z,24.15
2022-11-30T23:34:13.459Z,27.30
2022-11-30T23:36:47.108Z,28.08
2022-11-30T23:39:20.806Z,26.15
2022-11-30T23:41:53.495Z,20.92
2022-11-30T23:44:25.985Z,25.25
2022-11-30T23:47:00.360Z,26.23
2022-11-30T23:49:34.383Z,21.73
2022-11-30T23:52:07.010Z,24.05
2022-11-30T23:54:39.721Z,24.88
2022-11-30T23:57:13.079Z,27.48
2022-11-30T23:59:46.173Z,20.95
